EJU12DQ LEPA-EGCC
Flight info
| Callsign | EJU12DQ |
|---|---|
| Flight time | 2h 18m |
| Altitude | 34000 |
| Route | DRAGO DCT PAPOS DCT UMURE N863 GIROM DCT AGN DCT SECHE DCT UVELI DCT CNA DCT TUPAR UN861 ANG DCT AKIKI UN867 AVANT UM184 HEMEL T420 ELVOS |
| Aircraft | A320/M-SDE2E3FGHIJ1RWXYZ/LB1 |
Departure
| Time | 2026-05-07 17:16 |
|---|---|
| Airport | Palma de Mallorca Airport (LEPA) |
Arrival
| Time | 2026-05-07 19:34 |
|---|---|
| Airport | Manchester Airport (EGCC) |
| Time | Latitude | Longitude | Altitude | Speed | Heading |
|---|---|---|---|---|---|
| 2026-05-07 16:42 | 39.55008 | 2.72323 | 38 ft | 0 kts | 329° |
| 2026-05-07 17:02 | 39.54988 | 2.72338 | 38 ft | 4 kts | 333° |
| 2026-05-07 17:02 | 39.54963 | 2.72352 | 36 ft | 4 kts | 346° |
| 2026-05-07 17:02 | 39.54938 | 2.72354 | 37 ft | 4 kts | 24° |
| 2026-05-07 17:02 | 39.54928 | 2.72346 | 36 ft | 0 kts | 59° |
| 2026-05-07 17:05 | 39.54932 | 2.72354 | 37 ft | 4 kts | 59° |
| 2026-05-07 17:05 | 39.54954 | 2.72401 | 38 ft | 9 kts | 59° |
| 2026-05-07 17:05 | 39.54992 | 2.72483 | 37 ft | 12 kts | 59° |
| 2026-05-07 17:05 | 39.55036 | 2.72584 | 37 ft | 14 kts | 62° |
| 2026-05-07 17:06 | 39.55088 | 2.72696 | 38 ft | 15 kts | 58° |
| 2026-05-07 17:06 | 39.55145 | 2.72814 | 38 ft | 16 kts | 59° |
| 2026-05-07 17:06 | 39.55203 | 2.72940 | 38 ft | 17 kts | 58° |
| 2026-05-07 17:06 | 39.55266 | 2.73070 | 37 ft | 17 kts | 56° |
| 2026-05-07 17:07 | 39.55330 | 2.73206 | 38 ft | 18 kts | 58° |
| 2026-05-07 17:07 | 39.55396 | 2.73346 | 38 ft | 18 kts | 59° |
| 2026-05-07 17:07 | 39.55460 | 2.73482 | 38 ft | 16 kts | 58° |
| 2026-05-07 17:07 | 39.55502 | 2.73582 | 36 ft | 9 kts | 85° |
| 2026-05-07 17:08 | 39.55464 | 2.73623 | 38 ft | 6 kts | 145° |
| 2026-05-07 17:08 | 39.55421 | 2.73657 | 38 ft | 9 kts | 149° |
| 2026-05-07 17:08 | 39.55375 | 2.73693 | 38 ft | 7 kts | 148° |
| 2026-05-07 17:08 | 39.55339 | 2.73722 | 38 ft | 5 kts | 148° |
| 2026-05-07 17:09 | 39.55307 | 2.73747 | 38 ft | 8 kts | 149° |
| 2026-05-07 17:09 | 39.55249 | 2.73792 | 38 ft | 11 kts | 149° |
| 2026-05-07 17:09 | 39.55188 | 2.73840 | 38 ft | 9 kts | 148° |
| 2026-05-07 17:09 | 39.55134 | 2.73883 | 38 ft | 11 kts | 148° |
| 2026-05-07 17:10 | 39.55055 | 2.73946 | 38 ft | 16 kts | 148° |
| 2026-05-07 17:10 | 39.54948 | 2.74031 | 36 ft | 19 kts | 148° |
| 2026-05-07 17:10 | 39.54837 | 2.74116 | 38 ft | 14 kts | 149° |
| 2026-05-07 17:10 | 39.54766 | 2.74076 | 38 ft | 12 kts | 239° |
| 2026-05-07 17:11 | 39.54725 | 2.73990 | 38 ft | 11 kts | 238° |
| 2026-05-07 17:11 | 39.54679 | 2.73895 | 38 ft | 15 kts | 238° |
| 2026-05-07 17:11 | 39.54626 | 2.73782 | 38 ft | 14 kts | 238° |
| 2026-05-07 17:11 | 39.54579 | 2.73682 | 38 ft | 12 kts | 238° |
| 2026-05-07 17:12 | 39.54537 | 2.73593 | 38 ft | 12 kts | 238° |
| 2026-05-07 17:12 | 39.54485 | 2.73483 | 38 ft | 15 kts | 238° |
| 2026-05-07 17:12 | 39.54427 | 2.73362 | 36 ft | 15 kts | 238° |
| 2026-05-07 17:12 | 39.54376 | 2.73254 | 38 ft | 13 kts | 238° |
| 2026-05-07 17:13 | 39.54324 | 2.73144 | 38 ft | 14 kts | 238° |
| 2026-05-07 17:13 | 39.54271 | 2.73046 | 38 ft | 12 kts | 213° |
| 2026-05-07 17:13 | 39.54215 | 2.73096 | 38 ft | 12 kts | 106° |
| 2026-05-07 17:13 | 39.54212 | 2.73215 | 38 ft | 14 kts | 89° |
| 2026-05-07 17:14 | 39.54195 | 2.73307 | 38 ft | 5 kts | 103° |
| 2026-05-07 17:14 | 39.54204 | 2.73334 | 38 ft | 0 kts | 59° |
| 2026-05-07 17:15 | 39.54212 | 2.73352 | 37 ft | 14 kts | 59° |
| 2026-05-07 17:15 | 39.54399 | 2.73748 | 38 ft | 85 kts | 58° |
| 2026-05-07 17:16 | 39.54810 | 2.74612 | 38 ft | 138 kts | 58° |
| 2026-05-07 17:16 | 39.55366 | 2.75806 | 310 ft | 160 kts | 59° |
| 2026-05-07 17:16 | 39.55935 | 2.77055 | 908 ft | 163 kts | 60° |
| 2026-05-07 17:16 | 39.56516 | 2.78339 | 1450 ft | 173 kts | 61° |
| 2026-05-07 17:17 | 39.57154 | 2.79756 | 1737 ft | 192 kts | 60° |
| 2026-05-07 17:17 | 39.57862 | 2.81309 | 2134 ft | 204 kts | 60° |
| 2026-05-07 17:17 | 39.58588 | 2.82891 | 2822 ft | 206 kts | 60° |
| 2026-05-07 17:17 | 39.59327 | 2.84505 | 3497 ft | 209 kts | 60° |
| 2026-05-07 17:18 | 39.60075 | 2.86139 | 4176 ft | 213 kts | 60° |
| 2026-05-07 17:18 | 39.60834 | 2.87800 | 4876 ft | 216 kts | 61° |
| 2026-05-07 17:18 | 39.61608 | 2.89478 | 5610 ft | 218 kts | 57° |
| 2026-05-07 17:18 | 39.62744 | 2.90789 | 6259 ft | 226 kts | 25° |
| 2026-05-07 17:19 | 39.64309 | 2.91090 | 6861 ft | 235 kts | 351° |
| 2026-05-07 17:19 | 39.65785 | 2.90161 | 7470 ft | 244 kts | 315° |
| 2026-05-07 17:19 | 39.66664 | 2.88257 | 8159 ft | 252 kts | 291° |
| 2026-05-07 17:19 | 39.67262 | 2.86110 | 8981 ft | 254 kts | 287° |
| 2026-05-07 17:20 | 39.67760 | 2.83895 | 9681 ft | 257 kts | 283° |
| 2026-05-07 17:20 | 39.68149 | 2.81621 | 9876 ft | 258 kts | 279° |
| 2026-05-07 17:20 | 39.68404 | 2.79324 | 9940 ft | 257 kts | 275° |
| 2026-05-07 17:20 | 39.68499 | 2.77793 | 9943 ft | 257 kts | 272° |
| 2026-05-07 17:21 | 39.68773 | 2.74757 | 9944 ft | 258 kts | 282° |
| 2026-05-07 17:21 | 39.69328 | 2.72367 | 9951 ft | 295 kts | 292° |
| 2026-05-07 17:21 | 39.70197 | 2.69789 | 9953 ft | 328 kts | 294° |
| 2026-05-07 17:21 | 39.71156 | 2.66996 | 10276 ft | 345 kts | 295° |
| 2026-05-07 17:22 | 39.72139 | 2.64128 | 10895 ft | 350 kts | 294° |
| 2026-05-07 17:22 | 39.73124 | 2.61235 | 11662 ft | 351 kts | 295° |
| 2026-05-07 17:22 | 39.73790 | 2.59271 | 12100 ft | 353 kts | 294° |
| 2026-05-07 17:22 | 39.74789 | 2.56317 | 12683 ft | 360 kts | 293° |
| 2026-05-07 17:23 | 39.75800 | 2.53318 | 13382 ft | 363 kts | 293° |
| 2026-05-07 17:23 | 39.76816 | 2.50302 | 14017 ft | 366 kts | 293° |
| 2026-05-07 17:23 | 39.77842 | 2.47255 | 14570 ft | 370 kts | 292° |
| 2026-05-07 17:23 | 39.78862 | 2.44217 | 15101 ft | 373 kts | 292° |
| 2026-05-07 17:24 | 39.79904 | 2.41113 | 15674 ft | 376 kts | 292° |
| 2026-05-07 17:24 | 39.80954 | 2.37979 | 16231 ft | 379 kts | 292° |
| 2026-05-07 17:24 | 39.82014 | 2.34824 | 16806 ft | 383 kts | 291° |
| 2026-05-07 17:24 | 39.83084 | 2.31636 | 17346 ft | 386 kts | 291° |
| 2026-05-07 17:25 | 39.84147 | 2.28417 | 17912 ft | 389 kts | 291° |
| 2026-05-07 17:25 | 39.85199 | 2.25182 | 18533 ft | 388 kts | 290° |
| 2026-05-07 17:25 | 39.86243 | 2.21943 | 19046 ft | 389 kts | 290° |
| 2026-05-07 17:25 | 39.87289 | 2.18686 | 19539 ft | 391 kts | 290° |
| 2026-05-07 17:26 | 39.88341 | 2.15409 | 20035 ft | 393 kts | 290° |
| 2026-05-07 17:26 | 39.89398 | 2.12115 | 20493 ft | 396 kts | 290° |
| 2026-05-07 17:26 | 39.90466 | 2.08792 | 20941 ft | 399 kts | 290° |
| 2026-05-07 17:26 | 39.91541 | 2.05449 | 21376 ft | 402 kts | 290° |
| 2026-05-07 17:27 | 39.92622 | 2.02087 | 21800 ft | 404 kts | 290° |
| 2026-05-07 17:27 | 39.93712 | 1.98692 | 22242 ft | 407 kts | 290° |
| 2026-05-07 17:27 | 39.94806 | 1.95280 | 22670 ft | 410 kts | 290° |
| 2026-05-07 17:27 | 39.95904 | 1.91841 | 23088 ft | 412 kts | 290° |
| 2026-05-07 17:28 | 39.97012 | 1.88371 | 23468 ft | 417 kts | 289° |
| 2026-05-07 17:28 | 39.98134 | 1.84865 | 23755 ft | 421 kts | 289° |
| 2026-05-07 17:28 | 39.99463 | 1.81440 | 23912 ft | 427 kts | 300° |
| 2026-05-07 17:28 | 40.01289 | 1.78370 | 23938 ft | 430 kts | 311° |
| 2026-05-07 17:29 | 40.03550 | 1.75810 | 23941 ft | 431 kts | 322° |
| 2026-05-07 17:29 | 40.06149 | 1.73850 | 23942 ft | 433 kts | 334° |
| 2026-05-07 17:29 | 40.08948 | 1.72380 | 23943 ft | 434 kts | 336° |
| 2026-05-07 17:29 | 40.11768 | 1.70941 | 24106 ft | 436 kts | 336° |
| 2026-05-07 17:30 | 40.14601 | 1.69493 | 24460 ft | 439 kts | 336° |
| 2026-05-07 17:30 | 40.17448 | 1.68030 | 24803 ft | 441 kts | 336° |
| 2026-05-07 17:30 | 40.20313 | 1.66553 | 25121 ft | 444 kts | 336° |
| 2026-05-07 17:30 | 40.23197 | 1.65068 | 25443 ft | 447 kts | 336° |
| 2026-05-07 17:31 | 40.26096 | 1.63575 | 25780 ft | 449 kts | 335° |
| 2026-05-07 17:31 | 40.29013 | 1.62073 | 26091 ft | 452 kts | 335° |
| 2026-05-07 17:31 | 40.31943 | 1.60562 | 26393 ft | 454 kts | 335° |
| 2026-05-07 17:31 | 40.34894 | 1.59036 | 26690 ft | 457 kts | 335° |
| 2026-05-07 17:32 | 40.37857 | 1.57500 | 26977 ft | 460 kts | 335° |
| 2026-05-07 17:32 | 40.40845 | 1.55950 | 27269 ft | 463 kts | 335° |
| 2026-05-07 17:32 | 40.43843 | 1.54396 | 27553 ft | 465 kts | 335° |
| 2026-05-07 17:32 | 40.46870 | 1.52833 | 27855 ft | 468 kts | 334° |
| 2026-05-07 17:33 | 40.49910 | 1.51258 | 28147 ft | 471 kts | 334° |
| 2026-05-07 17:33 | 40.52970 | 1.49669 | 28388 ft | 474 kts | 334° |
| 2026-05-07 17:33 | 40.56045 | 1.48072 | 28660 ft | 477 kts | 334° |
| 2026-05-07 17:33 | 40.59144 | 1.46461 | 28920 ft | 480 kts | 334° |
| 2026-05-07 17:34 | 40.62261 | 1.44833 | 29179 ft | 483 kts | 334° |
| 2026-05-07 17:34 | 40.65392 | 1.43197 | 29432 ft | 486 kts | 334° |
| 2026-05-07 17:34 | 40.68546 | 1.41552 | 29670 ft | 489 kts | 334° |
| 2026-05-07 17:34 | 40.71718 | 1.39894 | 29908 ft | 491 kts | 334° |
| 2026-05-07 17:35 | 40.74857 | 1.38252 | 30119 ft | 494 kts | 334° |
| 2026-05-07 17:35 | 40.78057 | 1.36575 | 30330 ft | 496 kts | 334° |
| 2026-05-07 17:35 | 40.81267 | 1.34892 | 30565 ft | 497 kts | 334° |
| 2026-05-07 17:35 | 40.84474 | 1.33210 | 30884 ft | 496 kts | 334° |
| 2026-05-07 17:36 | 40.87673 | 1.31533 | 31243 ft | 494 kts | 334° |
| 2026-05-07 17:36 | 40.90862 | 1.29863 | 31610 ft | 492 kts | 333° |
| 2026-05-07 17:36 | 40.94028 | 1.28203 | 32026 ft | 488 kts | 333° |
| 2026-05-07 17:36 | 40.97175 | 1.26546 | 32402 ft | 486 kts | 333° |
| 2026-05-07 17:37 | 41.00312 | 1.24889 | 32746 ft | 484 kts | 332° |
| 2026-05-07 17:37 | 41.03437 | 1.23234 | 33079 ft | 483 kts | 332° |
| 2026-05-07 17:37 | 41.06548 | 1.21583 | 33399 ft | 482 kts | 332° |
| 2026-05-07 17:37 | 41.09657 | 1.19933 | 33737 ft | 481 kts | 332° |
| 2026-05-07 17:38 | 41.12777 | 1.18315 | 33944 ft | 482 kts | 335° |
| 2026-05-07 17:38 | 41.16019 | 1.17177 | 33980 ft | 483 kts | 345° |
| 2026-05-07 17:38 | 41.22728 | 1.16328 | 33976 ft | 484 kts | 351° |
| 2026-05-07 17:39 | 41.29440 | 1.15626 | 33974 ft | 484 kts | 351° |
| 2026-05-07 17:39 | 41.36155 | 1.14903 | 33975 ft | 484 kts | 351° |
| 2026-05-07 17:40 | 41.42863 | 1.14188 | 33980 ft | 480 kts | 352° |
| 2026-05-07 17:40 | 41.49498 | 1.13490 | 33977 ft | 477 kts | 352° |
| 2026-05-07 17:41 | 41.56105 | 1.12794 | 33978 ft | 476 kts | 352° |
| 2026-05-07 17:41 | 41.62695 | 1.12100 | 33976 ft | 474 kts | 352° |
| 2026-05-07 17:42 | 41.69264 | 1.11402 | 33970 ft | 473 kts | 352° |
| 2026-05-07 17:42 | 41.75821 | 1.10704 | 33964 ft | 472 kts | 352° |
| 2026-05-07 17:43 | 41.82362 | 1.10010 | 33979 ft | 470 kts | 351° |
| 2026-05-07 17:43 | 41.88872 | 1.09319 | 33976 ft | 468 kts | 351° |
| 2026-05-07 17:44 | 41.95319 | 1.08632 | 33971 ft | 467 kts | 351° |
| 2026-05-07 17:44 | 42.01829 | 1.07936 | 33974 ft | 466 kts | 351° |
| 2026-05-07 17:45 | 42.08280 | 1.07252 | 33974 ft | 464 kts | 351° |
| 2026-05-07 17:45 | 42.14676 | 1.06565 | 33971 ft | 464 kts | 351° |
| 2026-05-07 17:46 | 42.21148 | 1.05866 | 33986 ft | 463 kts | 351° |
| 2026-05-07 17:46 | 42.27518 | 1.05177 | 33980 ft | 462 kts | 351° |
| 2026-05-07 17:47 | 42.33915 | 1.04483 | 33973 ft | 461 kts | 352° |
| 2026-05-07 17:47 | 42.40309 | 1.03795 | 33976 ft | 461 kts | 352° |
| 2026-05-07 17:48 | 42.46690 | 1.03095 | 33981 ft | 460 kts | 352° |
| 2026-05-07 17:48 | 42.53073 | 1.02400 | 33979 ft | 460 kts | 352° |
| 2026-05-07 17:49 | 42.59443 | 1.01709 | 33978 ft | 460 kts | 352° |
| 2026-05-07 17:49 | 42.65811 | 1.01004 | 33977 ft | 459 kts | 352° |
| 2026-05-07 17:50 | 42.72180 | 1.00309 | 33974 ft | 459 kts | 352° |
| 2026-05-07 17:50 | 42.78548 | 0.99616 | 33967 ft | 459 kts | 352° |
| 2026-05-07 17:51 | 42.84905 | 0.98913 | 33966 ft | 459 kts | 352° |
| 2026-05-07 17:51 | 42.91260 | 0.98213 | 33953 ft | 458 kts | 352° |
| 2026-05-07 17:52 | 42.97618 | 0.97510 | 33956 ft | 458 kts | 352° |
| 2026-05-07 17:52 | 43.03969 | 0.96806 | 33960 ft | 458 kts | 352° |
| 2026-05-07 17:53 | 43.10305 | 0.96113 | 33959 ft | 457 kts | 352° |
| 2026-05-07 17:53 | 43.16639 | 0.95412 | 33956 ft | 456 kts | 352° |
| 2026-05-07 17:54 | 43.22970 | 0.94701 | 33957 ft | 456 kts | 352° |
| 2026-05-07 17:54 | 43.29301 | 0.93988 | 33950 ft | 457 kts | 352° |
| 2026-05-07 17:55 | 43.35633 | 0.93274 | 33946 ft | 457 kts | 352° |
| 2026-05-07 17:55 | 43.41970 | 0.92569 | 33946 ft | 457 kts | 353° |
| 2026-05-07 17:56 | 43.48257 | 0.91869 | 33952 ft | 456 kts | 353° |
| 2026-05-07 17:56 | 43.54584 | 0.91159 | 33952 ft | 456 kts | 353° |
| 2026-05-07 17:57 | 43.59880 | 0.90565 | 33950 ft | 456 kts | 353° |
| 2026-05-07 17:57 | 43.67222 | 0.89735 | 33957 ft | 455 kts | 352° |
| 2026-05-07 17:58 | 43.73525 | 0.89017 | 33955 ft | 455 kts | 353° |
| 2026-05-07 17:58 | 43.79830 | 0.88304 | 33948 ft | 454 kts | 353° |
| 2026-05-07 17:59 | 43.86120 | 0.87557 | 33953 ft | 453 kts | 349° |
| 2026-05-07 17:59 | 43.92097 | 0.85188 | 33952 ft | 444 kts | 331° |
| 2026-05-07 18:00 | 43.97682 | 0.81563 | 33947 ft | 443 kts | 331° |
| 2026-05-07 18:00 | 44.03271 | 0.77956 | 33947 ft | 443 kts | 331° |
| 2026-05-07 18:01 | 44.08859 | 0.74349 | 33964 ft | 443 kts | 331° |
| 2026-05-07 18:01 | 44.14451 | 0.70729 | 33942 ft | 443 kts | 331° |
| 2026-05-07 18:02 | 44.22828 | 0.65283 | 33944 ft | 443 kts | 331° |
| 2026-05-07 18:03 | 44.28414 | 0.61642 | 33939 ft | 443 kts | 331° |
| 2026-05-07 18:03 | 44.34005 | 0.57995 | 33932 ft | 443 kts | 331° |
| 2026-05-07 18:04 | 44.39595 | 0.54342 | 33933 ft | 443 kts | 331° |
| 2026-05-07 18:04 | 44.45143 | 0.50703 | 33938 ft | 443 kts | 331° |
| 2026-05-07 18:05 | 44.50720 | 0.47011 | 33942 ft | 443 kts | 330° |
| 2026-05-07 18:05 | 44.56291 | 0.43292 | 33938 ft | 444 kts | 330° |
| 2026-05-07 18:06 | 44.61867 | 0.39581 | 33945 ft | 443 kts | 330° |
| 2026-05-07 18:06 | 44.67441 | 0.35875 | 33954 ft | 443 kts | 330° |
| 2026-05-07 18:07 | 44.73004 | 0.32157 | 33952 ft | 443 kts | 330° |
| 2026-05-07 18:07 | 44.78569 | 0.28424 | 33952 ft | 443 kts | 330° |
| 2026-05-07 18:08 | 44.84135 | 0.24688 | 33943 ft | 443 kts | 330° |
| 2026-05-07 18:08 | 44.89696 | 0.20949 | 33942 ft | 443 kts | 330° |
| 2026-05-07 18:09 | 44.95260 | 0.17206 | 33941 ft | 443 kts | 330° |
| 2026-05-07 18:09 | 45.00823 | 0.13450 | 33948 ft | 443 kts | 330° |
| 2026-05-07 18:10 | 45.05440 | 0.10328 | 33947 ft | 443 kts | 330° |
| 2026-05-07 18:10 | 45.10994 | 0.06558 | 33945 ft | 442 kts | 330° |
| 2026-05-07 18:11 | 45.16541 | 0.02780 | 33950 ft | 443 kts | 330° |
| 2026-05-07 18:11 | 45.22092 | -0.01000 | 33968 ft | 442 kts | 330° |
| 2026-05-07 18:12 | 45.27636 | -0.04787 | 33953 ft | 443 kts | 330° |
| 2026-05-07 18:12 | 45.33190 | -0.08590 | 33947 ft | 443 kts | 330° |
| 2026-05-07 18:13 | 45.38739 | -0.12396 | 33948 ft | 443 kts | 330° |
| 2026-05-07 18:13 | 45.44291 | -0.16208 | 33948 ft | 443 kts | 330° |
| 2026-05-07 18:14 | 45.49845 | -0.20011 | 33955 ft | 443 kts | 330° |
| 2026-05-07 18:14 | 45.55397 | -0.23831 | 33950 ft | 443 kts | 330° |
| 2026-05-07 18:15 | 45.60944 | -0.27672 | 33962 ft | 443 kts | 330° |
| 2026-05-07 18:15 | 45.66497 | -0.31374 | 33963 ft | 446 kts | 336° |
| 2026-05-07 18:16 | 45.72423 | -0.34060 | 33952 ft | 447 kts | 339° |
| 2026-05-07 18:16 | 45.78359 | -0.36728 | 33965 ft | 447 kts | 339° |
| 2026-05-07 18:17 | 45.84285 | -0.39415 | 33951 ft | 447 kts | 339° |
| 2026-05-07 18:17 | 45.90212 | -0.42110 | 33968 ft | 447 kts | 339° |
| 2026-05-07 18:18 | 45.96141 | -0.44805 | 33961 ft | 447 kts | 339° |
| 2026-05-07 18:18 | 46.02068 | -0.47506 | 33961 ft | 447 kts | 338° |
| 2026-05-07 18:19 | 46.07997 | -0.50207 | 33968 ft | 447 kts | 338° |
| 2026-05-07 18:19 | 46.13929 | -0.52920 | 33964 ft | 447 kts | 338° |
| 2026-05-07 18:20 | 46.19856 | -0.55641 | 33967 ft | 447 kts | 338° |
| 2026-05-07 18:20 | 46.25783 | -0.58364 | 33968 ft | 447 kts | 338° |
| 2026-05-07 18:21 | 46.31708 | -0.61095 | 33965 ft | 447 kts | 338° |
| 2026-05-07 18:21 | 46.37631 | -0.63823 | 33966 ft | 447 kts | 338° |
| 2026-05-07 18:22 | 46.43574 | -0.66318 | 33966 ft | 450 kts | 346° |
| 2026-05-07 18:22 | 46.49814 | -0.67435 | 33965 ft | 452 kts | 350° |
| 2026-05-07 18:23 | 46.56066 | -0.68479 | 33965 ft | 452 kts | 350° |
| 2026-05-07 18:23 | 46.62318 | -0.69530 | 33970 ft | 452 kts | 350° |
| 2026-05-07 18:24 | 46.68569 | -0.70583 | 33971 ft | 452 kts | 350° |
| 2026-05-07 18:24 | 46.74817 | -0.71637 | 33968 ft | 452 kts | 349° |
| 2026-05-07 18:25 | 46.81066 | -0.72694 | 33974 ft | 452 kts | 350° |
| 2026-05-07 18:25 | 46.87315 | -0.73755 | 33972 ft | 452 kts | 349° |
| 2026-05-07 18:26 | 46.93563 | -0.74819 | 33971 ft | 452 kts | 349° |
| 2026-05-07 18:26 | 46.99809 | -0.75887 | 33976 ft | 452 kts | 349° |
| 2026-05-07 18:27 | 47.06051 | -0.76953 | 33974 ft | 452 kts | 349° |
| 2026-05-07 18:27 | 47.12294 | -0.78013 | 33973 ft | 452 kts | 349° |
| 2026-05-07 18:28 | 47.18532 | -0.79093 | 33987 ft | 451 kts | 349° |
| 2026-05-07 18:28 | 47.24768 | -0.80179 | 33984 ft | 451 kts | 349° |
| 2026-05-07 18:29 | 47.31001 | -0.81249 | 33980 ft | 451 kts | 349° |
| 2026-05-07 18:29 | 47.37188 | -0.82310 | 33977 ft | 451 kts | 349° |
| 2026-05-07 18:30 | 47.43417 | -0.83390 | 33992 ft | 451 kts | 350° |
| 2026-05-07 18:30 | 47.49645 | -0.84478 | 33984 ft | 450 kts | 350° |
| 2026-05-07 18:31 | 47.55861 | -0.85626 | 33982 ft | 450 kts | 348° |
| 2026-05-07 18:31 | 47.62020 | -0.87205 | 33985 ft | 449 kts | 346° |
| 2026-05-07 18:32 | 47.68147 | -0.88967 | 33988 ft | 448 kts | 346° |
| 2026-05-07 18:32 | 47.74277 | -0.90664 | 33984 ft | 448 kts | 346° |
| 2026-05-07 18:33 | 47.80419 | -0.92295 | 33993 ft | 448 kts | 347° |
| 2026-05-07 18:33 | 47.86561 | -0.93907 | 33994 ft | 448 kts | 347° |
| 2026-05-07 18:34 | 47.92691 | -0.95544 | 33999 ft | 447 kts | 346° |
| 2026-05-07 18:34 | 47.98818 | -0.97191 | 34001 ft | 447 kts | 346° |
| 2026-05-07 18:35 | 48.04946 | -0.98841 | 34008 ft | 447 kts | 347° |
| 2026-05-07 18:35 | 48.11065 | -1.00489 | 34030 ft | 449 kts | 347° |
| 2026-05-07 18:35 | 48.14147 | -1.01320 | 34195 ft | 451 kts | 347° |
| 2026-05-07 18:36 | 48.17239 | -1.02156 | 34425 ft | 452 kts | 347° |
| 2026-05-07 18:36 | 48.20334 | -1.02994 | 34676 ft | 451 kts | 347° |
| 2026-05-07 18:36 | 48.23420 | -1.03829 | 34951 ft | 450 kts | 347° |
| 2026-05-07 18:36 | 48.26500 | -1.04666 | 35222 ft | 449 kts | 347° |
| 2026-05-07 18:37 | 48.29572 | -1.05504 | 35475 ft | 449 kts | 347° |
| 2026-05-07 18:37 | 48.32643 | -1.06339 | 35707 ft | 448 kts | 347° |
| 2026-05-07 18:37 | 48.35709 | -1.07172 | 35925 ft | 448 kts | 347° |
| 2026-05-07 18:38 | 48.41846 | -1.08842 | 36003 ft | 448 kts | 347° |
| 2026-05-07 18:38 | 48.47970 | -1.10525 | 36007 ft | 447 kts | 347° |
| 2026-05-07 18:39 | 48.54098 | -1.12207 | 36006 ft | 447 kts | 347° |
| 2026-05-07 18:39 | 48.60225 | -1.13878 | 36011 ft | 447 kts | 347° |
| 2026-05-07 18:40 | 48.66353 | -1.15560 | 36021 ft | 447 kts | 347° |
| 2026-05-07 18:40 | 48.72476 | -1.17254 | 36021 ft | 447 kts | 347° |
| 2026-05-07 18:41 | 48.78603 | -1.18956 | 36021 ft | 447 kts | 347° |
| 2026-05-07 18:41 | 48.84723 | -1.20664 | 36024 ft | 447 kts | 347° |
| 2026-05-07 18:42 | 48.90848 | -1.22366 | 36026 ft | 447 kts | 347° |
| 2026-05-07 18:42 | 48.96973 | -1.24069 | 36021 ft | 447 kts | 347° |
| 2026-05-07 18:43 | 49.03096 | -1.25787 | 36023 ft | 447 kts | 347° |
| 2026-05-07 18:43 | 49.09217 | -1.27502 | 36037 ft | 447 kts | 347° |
| 2026-05-07 18:44 | 49.15338 | -1.29218 | 36035 ft | 447 kts | 347° |
| 2026-05-07 18:44 | 49.21451 | -1.30943 | 36035 ft | 447 kts | 347° |
| 2026-05-07 18:45 | 49.27563 | -1.32676 | 36035 ft | 447 kts | 347° |
| 2026-05-07 18:45 | 49.33672 | -1.34411 | 36042 ft | 447 kts | 347° |
| 2026-05-07 18:46 | 49.39746 | -1.36134 | 36029 ft | 447 kts | 347° |
| 2026-05-07 18:46 | 49.45861 | -1.37865 | 36025 ft | 447 kts | 347° |
| 2026-05-07 18:47 | 49.51975 | -1.39607 | 36034 ft | 447 kts | 347° |
| 2026-05-07 18:47 | 49.58102 | -1.41291 | 36027 ft | 448 kts | 352° |
| 2026-05-07 18:48 | 49.64353 | -1.41206 | 36030 ft | 451 kts | 1° |
| 2026-05-07 18:48 | 49.70620 | -1.40637 | 36030 ft | 451 kts | 1° |
| 2026-05-07 18:49 | 49.76890 | -1.40093 | 36035 ft | 452 kts | 1° |
| 2026-05-07 18:49 | 49.83124 | -1.39548 | 36034 ft | 452 kts | 1° |
| 2026-05-07 18:50 | 49.89403 | -1.38988 | 36030 ft | 452 kts | 1° |
| 2026-05-07 18:50 | 49.95682 | -1.38423 | 36035 ft | 452 kts | 1° |
| 2026-05-07 18:51 | 50.01951 | -1.37574 | 36046 ft | 453 kts | 7° |
| 2026-05-07 18:51 | 50.08174 | -1.36027 | 36035 ft | 453 kts | 7° |
| 2026-05-07 18:52 | 50.14390 | -1.34475 | 36042 ft | 452 kts | 7° |
| 2026-05-07 18:52 | 50.20606 | -1.32921 | 36045 ft | 452 kts | 7° |
| 2026-05-07 18:53 | 50.26811 | -1.31368 | 36043 ft | 452 kts | 7° |
| 2026-05-07 18:53 | 50.32976 | -1.29830 | 36043 ft | 452 kts | 7° |
| 2026-05-07 18:54 | 50.39186 | -1.28274 | 36048 ft | 452 kts | 7° |
| 2026-05-07 18:54 | 50.45395 | -1.26706 | 36061 ft | 452 kts | 7° |
| 2026-05-07 18:55 | 50.51435 | -1.23997 | 36054 ft | 455 kts | 24° |
| 2026-05-07 18:55 | 50.56883 | -1.18921 | 36051 ft | 456 kts | 31° |
| 2026-05-07 18:56 | 50.62238 | -1.13595 | 36049 ft | 456 kts | 31° |
| 2026-05-07 18:56 | 50.67600 | -1.08255 | 36063 ft | 456 kts | 31° |
| 2026-05-07 18:57 | 50.72955 | -1.02902 | 36059 ft | 456 kts | 31° |
| 2026-05-07 18:57 | 50.78306 | -0.97539 | 36058 ft | 455 kts | 31° |
| 2026-05-07 18:58 | 50.82886 | -0.93491 | 36049 ft | 453 kts | 20° |
| 2026-05-07 18:58 | 50.88844 | -0.90314 | 36060 ft | 452 kts | 16° |
| 2026-05-07 18:59 | 50.94821 | -0.87229 | 36055 ft | 452 kts | 16° |
| 2026-05-07 18:59 | 51.00796 | -0.84128 | 36056 ft | 452 kts | 16° |
| 2026-05-07 19:00 | 51.06763 | -0.81016 | 36056 ft | 452 kts | 16° |
| 2026-05-07 19:00 | 51.12737 | -0.77902 | 36055 ft | 452 kts | 16° |
| 2026-05-07 19:01 | 51.18712 | -0.74774 | 36058 ft | 452 kts | 16° |
| 2026-05-07 19:01 | 51.24690 | -0.71648 | 36060 ft | 452 kts | 16° |
| 2026-05-07 19:02 | 51.30663 | -0.68512 | 36059 ft | 452 kts | 16° |
| 2026-05-07 19:02 | 51.36628 | -0.65364 | 36068 ft | 452 kts | 16° |
| 2026-05-07 19:03 | 51.42595 | -0.62201 | 36069 ft | 451 kts | 16° |
| 2026-05-07 19:03 | 51.48557 | -0.59040 | 36064 ft | 451 kts | 16° |
| 2026-05-07 19:04 | 51.54520 | -0.55883 | 36057 ft | 451 kts | 16° |
| 2026-05-07 19:04 | 51.60478 | -0.52716 | 36065 ft | 451 kts | 16° |
| 2026-05-07 19:05 | 51.66390 | -0.49558 | 36062 ft | 451 kts | 16° |
| 2026-05-07 19:05 | 51.72333 | -0.46362 | 36087 ft | 450 kts | 16° |
| 2026-05-07 19:06 | 51.78469 | -0.44591 | 36052 ft | 443 kts | 356° |
| 2026-05-07 19:06 | 51.84460 | -0.46209 | 35487 ft | 432 kts | 336° |
| 2026-05-07 19:06 | 51.87139 | -0.48253 | 35046 ft | 422 kts | 326° |
| 2026-05-07 19:07 | 51.89643 | -0.50687 | 34613 ft | 418 kts | 325° |
| 2026-05-07 19:07 | 51.92083 | -0.53085 | 34201 ft | 413 kts | 325° |
| 2026-05-07 19:07 | 51.94560 | -0.55524 | 33747 ft | 409 kts | 325° |
| 2026-05-07 19:07 | 51.96977 | -0.57902 | 33261 ft | 405 kts | 325° |
| 2026-05-07 19:08 | 51.99382 | -0.60263 | 32767 ft | 402 kts | 325° |
| 2026-05-07 19:08 | 52.01766 | -0.62597 | 32278 ft | 399 kts | 325° |
| 2026-05-07 19:08 | 52.04099 | -0.64879 | 31798 ft | 395 kts | 325° |
| 2026-05-07 19:08 | 52.06445 | -0.67178 | 31342 ft | 392 kts | 325° |
| 2026-05-07 19:09 | 52.08802 | -0.69495 | 30877 ft | 389 kts | 325° |
| 2026-05-07 19:09 | 52.11108 | -0.71768 | 30434 ft | 386 kts | 325° |
| 2026-05-07 19:09 | 52.13384 | -0.74013 | 29977 ft | 383 kts | 325° |
| 2026-05-07 19:09 | 52.15641 | -0.76235 | 29454 ft | 380 kts | 325° |
| 2026-05-07 19:10 | 52.17929 | -0.78485 | 28913 ft | 378 kts | 325° |
| 2026-05-07 19:10 | 52.20166 | -0.80695 | 28404 ft | 375 kts | 325° |
| 2026-05-07 19:10 | 52.22389 | -0.82902 | 27914 ft | 373 kts | 325° |
| 2026-05-07 19:10 | 52.24593 | -0.85090 | 27426 ft | 370 kts | 325° |
| 2026-05-07 19:11 | 52.26789 | -0.87266 | 26948 ft | 368 kts | 325° |
| 2026-05-07 19:11 | 52.28941 | -0.89401 | 26489 ft | 366 kts | 326° |
| 2026-05-07 19:11 | 52.31107 | -0.91552 | 26022 ft | 364 kts | 326° |
| 2026-05-07 19:11 | 52.33264 | -0.93701 | 25560 ft | 362 kts | 326° |
| 2026-05-07 19:12 | 52.35406 | -0.95836 | 25134 ft | 360 kts | 325° |
| 2026-05-07 19:12 | 52.37535 | -0.97958 | 24698 ft | 358 kts | 325° |
| 2026-05-07 19:12 | 52.39652 | -1.00074 | 24271 ft | 355 kts | 325° |
| 2026-05-07 19:12 | 52.41757 | -1.02184 | 23850 ft | 353 kts | 325° |
| 2026-05-07 19:13 | 52.43845 | -1.04283 | 23373 ft | 352 kts | 325° |
| 2026-05-07 19:13 | 52.45928 | -1.06371 | 22899 ft | 350 kts | 326° |
| 2026-05-07 19:13 | 52.47994 | -1.08442 | 22447 ft | 347 kts | 326° |
| 2026-05-07 19:13 | 52.50052 | -1.10504 | 21995 ft | 346 kts | 326° |
| 2026-05-07 19:14 | 52.52098 | -1.12560 | 21570 ft | 344 kts | 326° |
| 2026-05-07 19:14 | 52.54128 | -1.14605 | 21127 ft | 342 kts | 326° |
| 2026-05-07 19:14 | 52.56153 | -1.16647 | 20700 ft | 340 kts | 326° |
| 2026-05-07 19:14 | 52.58166 | -1.18678 | 20277 ft | 339 kts | 326° |
| 2026-05-07 19:15 | 52.60172 | -1.20707 | 19869 ft | 337 kts | 326° |
| 2026-05-07 19:15 | 52.62163 | -1.22724 | 19465 ft | 336 kts | 326° |
| 2026-05-07 19:15 | 52.64148 | -1.24731 | 19086 ft | 334 kts | 326° |
| 2026-05-07 19:15 | 52.66129 | -1.26733 | 18705 ft | 333 kts | 326° |
| 2026-05-07 19:16 | 52.68096 | -1.28722 | 18345 ft | 332 kts | 326° |
| 2026-05-07 19:16 | 52.70056 | -1.30708 | 17938 ft | 330 kts | 326° |
| 2026-05-07 19:16 | 52.72010 | -1.32688 | 17560 ft | 329 kts | 326° |
| 2026-05-07 19:16 | 52.73954 | -1.34665 | 17222 ft | 327 kts | 326° |
| 2026-05-07 19:17 | 52.75885 | -1.36639 | 16858 ft | 326 kts | 326° |
| 2026-05-07 19:17 | 52.77811 | -1.38609 | 16476 ft | 325 kts | 326° |
| 2026-05-07 19:17 | 52.79731 | -1.40574 | 16115 ft | 324 kts | 326° |
| 2026-05-07 19:17 | 52.81641 | -1.42531 | 15758 ft | 323 kts | 326° |
| 2026-05-07 19:18 | 52.83549 | -1.44483 | 15411 ft | 322 kts | 326° |
| 2026-05-07 19:18 | 52.85447 | -1.46426 | 15072 ft | 321 kts | 326° |
| 2026-05-07 19:18 | 52.87342 | -1.48366 | 14736 ft | 320 kts | 326° |
| 2026-05-07 19:18 | 52.89227 | -1.50301 | 14410 ft | 319 kts | 326° |
| 2026-05-07 19:19 | 52.91110 | -1.52233 | 14096 ft | 317 kts | 326° |
| 2026-05-07 19:19 | 52.92979 | -1.54154 | 13778 ft | 316 kts | 325° |
| 2026-05-07 19:19 | 52.94838 | -1.56071 | 13424 ft | 314 kts | 325° |
| 2026-05-07 19:19 | 52.96682 | -1.57978 | 13104 ft | 311 kts | 325° |
| 2026-05-07 19:20 | 52.98515 | -1.59869 | 12786 ft | 309 kts | 325° |
| 2026-05-07 19:20 | 53.00329 | -1.61745 | 12468 ft | 306 kts | 325° |
| 2026-05-07 19:20 | 53.02127 | -1.63610 | 12143 ft | 304 kts | 325° |
| 2026-05-07 19:20 | 53.03918 | -1.65468 | 11823 ft | 302 kts | 325° |
| 2026-05-07 19:21 | 53.05589 | -1.67514 | 11494 ft | 296 kts | 314° |
| 2026-05-07 19:21 | 53.06968 | -1.70014 | 11176 ft | 292 kts | 307° |
| 2026-05-07 19:21 | 53.08283 | -1.72568 | 10854 ft | 289 kts | 307° |
| 2026-05-07 19:21 | 53.09586 | -1.75096 | 10539 ft | 287 kts | 307° |
| 2026-05-07 19:22 | 53.10881 | -1.77604 | 10263 ft | 283 kts | 307° |
| 2026-05-07 19:22 | 53.12159 | -1.80079 | 9965 ft | 281 kts | 307° |
| 2026-05-07 19:22 | 53.13407 | -1.82498 | 9635 ft | 279 kts | 307° |
| 2026-05-07 19:22 | 53.14667 | -1.84942 | 9249 ft | 278 kts | 307° |
| 2026-05-07 19:23 | 53.15919 | -1.87381 | 8860 ft | 277 kts | 307° |
| 2026-05-07 19:23 | 53.17166 | -1.89818 | 8470 ft | 276 kts | 307° |
| 2026-05-07 19:23 | 53.18407 | -1.92245 | 8067 ft | 275 kts | 307° |
| 2026-05-07 19:23 | 53.19648 | -1.94675 | 7657 ft | 275 kts | 307° |
| 2026-05-07 19:24 | 53.20885 | -1.97098 | 7352 ft | 271 kts | 307° |
| 2026-05-07 19:24 | 53.22083 | -1.99443 | 7221 ft | 260 kts | 307° |
| 2026-05-07 19:24 | 53.23275 | -2.01649 | 7114 ft | 256 kts | 317° |
| 2026-05-07 19:24 | 53.24869 | -2.02955 | 7015 ft | 260 kts | 348° |
| 2026-05-07 19:25 | 53.26677 | -2.02771 | 7028 ft | 265 kts | 18° |
| 2026-05-07 19:25 | 53.28333 | -2.01450 | 7029 ft | 260 kts | 29° |
| 2026-05-07 19:25 | 53.29884 | -1.99954 | 7029 ft | 257 kts | 30° |
| 2026-05-07 19:25 | 53.31420 | -1.98437 | 7032 ft | 256 kts | 30° |
| 2026-05-07 19:26 | 53.32956 | -1.96910 | 7032 ft | 256 kts | 30° |
| 2026-05-07 19:26 | 53.34488 | -1.95387 | 7033 ft | 256 kts | 30° |
| 2026-05-07 19:26 | 53.36019 | -1.93867 | 7032 ft | 256 kts | 30° |
| 2026-05-07 19:26 | 53.37551 | -1.92349 | 7007 ft | 255 kts | 31° |
| 2026-05-07 19:27 | 53.39071 | -1.90842 | 6692 ft | 254 kts | 31° |
| 2026-05-07 19:27 | 53.40587 | -1.89343 | 6387 ft | 252 kts | 30° |
| 2026-05-07 19:27 | 53.42121 | -1.87941 | 6050 ft | 251 kts | 18° |
| 2026-05-07 19:27 | 53.43820 | -1.87660 | 5659 ft | 246 kts | 346° |
| 2026-05-07 19:28 | 53.45452 | -1.88498 | 5301 ft | 245 kts | 337° |
| 2026-05-07 19:28 | 53.47039 | -1.89549 | 4958 ft | 245 kts | 335° |
| 2026-05-07 19:28 | 53.48613 | -1.90645 | 4594 ft | 245 kts | 331° |
| 2026-05-07 19:28 | 53.49874 | -1.92438 | 4284 ft | 236 kts | 298° |
| 2026-05-07 19:29 | 53.50311 | -1.94979 | 3959 ft | 224 kts | 261° |
| 2026-05-07 19:29 | 53.49825 | -1.97371 | 3867 ft | 217 kts | 231° |
| 2026-05-07 19:29 | 53.48906 | -1.99329 | 3757 ft | 209 kts | 227° |
| 2026-05-07 19:29 | 53.48012 | -2.01185 | 3644 ft | 200 kts | 227° |
| 2026-05-07 19:30 | 53.47158 | -2.02967 | 3581 ft | 189 kts | 227° |
| 2026-05-07 19:30 | 53.46369 | -2.04618 | 3466 ft | 177 kts | 227° |
| 2026-05-07 19:30 | 53.45611 | -2.06201 | 3264 ft | 171 kts | 227° |
| 2026-05-07 19:30 | 53.44876 | -2.07734 | 3050 ft | 167 kts | 227° |
| 2026-05-07 19:31 | 53.44157 | -2.09235 | 2834 ft | 164 kts | 227° |
| 2026-05-07 19:31 | 53.43449 | -2.10711 | 2599 ft | 162 kts | 227° |
| 2026-05-07 19:31 | 53.42749 | -2.12170 | 2393 ft | 160 kts | 227° |
| 2026-05-07 19:31 | 53.42057 | -2.13611 | 2175 ft | 156 kts | 227° |
| 2026-05-07 19:32 | 53.41384 | -2.15012 | 1955 ft | 154 kts | 227° |
| 2026-05-07 19:32 | 53.40717 | -2.16401 | 1759 ft | 152 kts | 227° |
| 2026-05-07 19:32 | 53.40071 | -2.17746 | 1549 ft | 144 kts | 227° |
| 2026-05-07 19:32 | 53.39445 | -2.19048 | 1353 ft | 143 kts | 227° |
| 2026-05-07 19:33 | 53.38825 | -2.20331 | 1172 ft | 144 kts | 227° |
| 2026-05-07 19:33 | 53.38167 | -2.21653 | 968 ft | 147 kts | 229° |
| 2026-05-07 19:33 | 53.37542 | -2.22980 | 790 ft | 146 kts | 230° |
| 2026-05-07 19:33 | 53.36895 | -2.24334 | 561 ft | 147 kts | 231° |
| 2026-05-07 19:34 | 53.36264 | -2.25666 | 334 ft | 144 kts | 229° |
| 2026-05-07 19:34 | 53.35669 | -2.26881 | 263 ft | 114 kts | 230° |
| 2026-05-07 19:34 | 53.35359 | -2.27529 | 243 ft | 34 kts | 231° |
| 2026-05-07 19:34 | 53.35261 | -2.27854 | 237 ft | 27 kts | 256° |
| 2026-05-07 19:35 | 53.35236 | -2.28083 | 231 ft | 20 kts | 260° |
| 2026-05-07 19:35 | 53.35252 | -2.28223 | 232 ft | 8 kts | 327° |
| 2026-05-07 19:35 | 53.35286 | -2.28223 | 232 ft | 3 kts | 18° |
| 2026-05-07 19:35 | 53.35296 | -2.28217 | 232 ft | 0 kts | 20° |
| 2026-05-07 19:36 | 53.35297 | -2.28216 | 232 ft | 0 kts | 21° |
| 2026-05-07 19:36 | 53.35310 | -2.28208 | 233 ft | 5 kts | 21° |
| 2026-05-07 19:36 | 53.35331 | -2.28194 | 235 ft | 2 kts | 21° |
| 2026-05-07 19:36 | 53.35366 | -2.28175 | 235 ft | 11 kts | 15° |
| 2026-05-07 19:37 | 53.35442 | -2.28154 | 239 ft | 11 kts | 9° |
| 2026-05-07 19:37 | 53.35515 | -2.28104 | 235 ft | 11 kts | 33° |
| 2026-05-07 19:37 | 53.35576 | -2.28002 | 237 ft | 11 kts | 50° |
| 2026-05-07 19:37 | 53.35615 | -2.27921 | 240 ft | 9 kts | 50° |
| 2026-05-07 19:38 | 53.35706 | -2.27880 | 245 ft | 18 kts | 5° |
| 2026-05-07 19:38 | 53.35812 | -2.27863 | 251 ft | 15 kts | 5° |
| 2026-05-07 19:38 | 53.35926 | -2.27848 | 255 ft | 18 kts | 356° |
| 2026-05-07 19:38 | 53.36032 | -2.27959 | 255 ft | 18 kts | 319° |
| 2026-05-07 19:39 | 53.36127 | -2.28102 | 255 ft | 19 kts | 315° |
| 2026-05-07 19:39 | 53.36223 | -2.28265 | 255 ft | 20 kts | 315° |
| 2026-05-07 19:39 | 53.36321 | -2.28430 | 255 ft | 16 kts | 315° |
| 2026-05-07 19:39 | 53.36380 | -2.28477 | 255 ft | 14 kts | 352° |
| 2026-05-07 19:40 | 53.36484 | -2.28596 | 255 ft | 17 kts | 314° |
| 2026-05-07 19:40 | 53.36573 | -2.28745 | 255 ft | 18 kts | 315° |
| 2026-05-07 19:40 | 53.36652 | -2.28745 | 255 ft | 12 kts | 43° |
| 2026-05-07 19:40 | 53.36711 | -2.28648 | 255 ft | 12 kts | 44° |
| 2026-05-07 19:41 | 53.36772 | -2.28548 | 255 ft | 12 kts | 45° |
| 2026-05-07 19:41 | 53.36820 | -2.28528 | 255 ft | 7 kts | 319° |
| 2026-05-07 19:41 | 53.36854 | -2.28587 | 255 ft | 4 kts | 314° |
| 2026-05-07 19:41 | 53.36862 | -2.28600 | 255 ft | 1 kts | 314° |